CheckWX is a tool to help pilots better visualize weather data.  It is not intended as a substitute for an official pre-flight weather briefing.

19:02:02 UTC

CYGR METAR
Îles-de-la-Madeleine Airport
Îles-de-la-Madeleine, Quebec, Canada
Current

1 hour ago

CYGR 191800Z 31021G29KT 15SM BKN025 M12/M17 A2996 RMK SC7 SLP147
Observed
Feb-19 @ 18:00 UTC
Wind
  • 310° at 21 KTS
  • Gusting to 29 KTS
Visibility
15 SM
Flight Rules
MVFR
Cloud Levels
  • Broken at 2,500' AGL
Temperature
-12°C / 10°F
Dewpoint
-17°C / 1°F
Humidity
67%
Altimeter
29.96" Hg
Pressure
1014.7 hPa
Previous

2 hours ago

CYGR 191700Z 32023G30KT 20SM BKN027 M12/M16 A2995 RMK SC7 SLP143
Observed
Feb-19 @ 17:00 UTC
Wind
  • 320° at 23 KTS
  • Gusting to 30 KTS
Visibility
20 SM
Flight Rules
MVFR
Cloud Levels
  • Broken at 2,700' AGL
Temperature
-12°C / 10°F
Dewpoint
-16°C / 3°F
Humidity
72%
Altimeter
29.95" Hg
Pressure
1014.3 hPa
Previous

3 hours ago

CYGR 191600Z 32020G27KT 12SM OVC019 M11/M16 A2995 RMK SC8 SLP143
Observed
Feb-19 @ 16:00 UTC
Wind
  • 320° at 20 KTS
  • Gusting to 27 KTS
Visibility
12 SM
Flight Rules
MVFR
Cloud Levels
  • Overcast at 1,900' AGL
Temperature
-11°C / 12°F
Dewpoint
-16°C / 3°F
Humidity
67%
Altimeter
29.95" Hg
Pressure
1014.3 hPa